Nearby METAR Reports

 

KAVP - Avoca/Wilkes B., Pennsylvania, USA
Distance from station: N 16mi, 25km
Updated: 08/07/2020 7:54am
Mostly cloudy
Mostly cloudy
 Wind from NE
Wind: NE 6 mph , 9 km/h
Temperature: 72°F , 22°C
Dew Point: 64°F , 18°C
Humidity: 78%
Barometer: 30.17 inHg , 1021.7 hPa
Clouds: Mostly cloudy
Visibility: 10 miles , 16 km
Cloud details: Mostly cloudy 4000 ft
Mostly cloudy 5000 ft
2020/08/07 11:54 KAVP 071154Z AUTO 04005KT 10SM BKN040 BKN050 22/18 A3017 RMK AO2 SLP207 T02220178 10228 20206 53016
KMPO - Mt. Pocono, Pennsylvania, USA
Distance from station: E 20mi, 33km
Updated: 08/07/2020 7:53am
Overcast
Overcast
 Wind from varies
Wind: varies 6 mph , 9 km/h
Temperature: 64°F , 18°C
Dew Point: 59°F , 15°C
Humidity: 83%
Barometer: 30.20 inHg , 1022.7 hPa
Clouds: Overcast
Visibility: 10 miles , 16 km
Cloud details: Mostly cloudy 4900 ft
Mostly cloudy 6000 ft
Overcast 8000 ft
2020/08/07 11:53 KMPO 071153Z AUTO VRB05KT 10SM BKN049 BKN060 OVC080 18/15 A3020 RMK AO2 SLP217 T01780150 10183 20167 53012
 
KABE - Allentown, Pennsylvania, USA
Distance from station: SSE 36mi, 58km
Updated: 08/07/2020 7:51am
Overcast
Overcast
 Wind from ENE
Wind: ENE 9 mph , 15 km/h
Temperature: 70°F , 21°C
Dew Point: 64°F , 18°C
Humidity: 83%
Barometer: 30.14 inHg , 1020.7 hPa
Clouds: Overcast
Visibility: 10 miles , 16 km
Cloud details: Mostly cloudy 2900 ft
Overcast 4800 ft
2020/08/07 11:51 KABE 071151Z 06008KT 10SM BKN029 OVC048 21/18 A3014 RMK AO2 LTG DSNT S SLP204 T02110178 10217 20200 53014
KXLL - Allentown Queen, Pennsylvania, USA
Distance from station: SSE 41mi, 65km
Updated: 08/07/2020 7:55am
Thunderstorm, Mostly cloudy
Thunderstorm, Mostly cloudy
 Wind from ENE
Wind: ENE 8 mph , 13 km/h
Temperature: 70°F , 21°C
Dew Point: 64°F , 18°C
Humidity: 83%
Barometer: 30.16 inHg , 1021.3 hPa
Summary: Thunderstorm
Clouds: Mostly cloudy
Visibility: 10 miles , 16 km
Cloud details: Mostly cloudy 4700 ft
Mostly cloudy 6500 ft
Mostly cloudy 8000 ft
2020/08/07 11:55 KXLL 071155Z AUTO 07007KT 10SM TS BKN047 BKN065 BKN080 21/18 A3016 RMK AO2 LTG DSNT S AND NW